createdAt,value
2022-11-13T00:00:30.127Z,0.98
2022-11-13T00:02:47.448Z,1.00
2022-11-13T00:05:04.067Z,1.10
2022-11-13T00:07:21.022Z,0.55
2022-11-13T00:09:38.070Z,0.98
2022-11-13T00:11:55.193Z,0.93
2022-11-13T00:14:12.011Z,0.85
2022-11-13T00:16:30.207Z,1.38
2022-11-13T00:18:47.932Z,0.80
2022-11-13T00:21:08.890Z,1.13
2022-11-13T00:23:25.922Z,0.80
2022-11-13T00:25:43.128Z,0.80
2022-11-13T00:27:59.798Z,0.20
2022-11-13T00:30:19.489Z,0.65
2022-11-13T00:32:38.107Z,1.27
2022-11-13T00:34:55.365Z,0.90
2022-11-13T00:37:12.322Z,1.10
2022-11-13T00:39:28.670Z,0.80
2022-11-13T00:41:45.569Z,1.38
2022-11-13T00:44:04.163Z,0.77
2022-11-13T00:46:21.097Z,1.48
2022-11-13T00:48:39.853Z,0.90
2022-11-13T00:50:56.994Z,1.10
2022-11-13T00:53:18.076Z,0.85
2022-11-13T00:55:35.419Z,0.28
2022-11-13T00:57:52.284Z,1.67
2022-11-13T01:00:11.204Z,0.85
2022-11-13T01:02:28.020Z,0.70
2022-11-13T01:04:46.508Z,0.52
2022-11-13T01:07:03.599Z,1.08
2022-11-13T01:09:20.250Z,0.43
2022-11-13T01:11:37.327Z,0.93
2022-11-13T01:13:55.112Z,0.60
2022-11-13T01:16:13.744Z,0.40
2022-11-13T01:18:30.893Z,0.45
2022-11-13T01:20:48.902Z,0.90
2022-11-13T01:23:05.917Z,0.50
2022-11-13T01:25:22.969Z,0.93
2022-11-13T01:27:40.797Z,1.05
2022-11-13T01:29:57.575Z,1.00
2022-11-13T01:32:14.856Z,0.88
2022-11-13T01:34:32.055Z,0.80
2022-11-13T01:36:50.347Z,0.63
2022-11-13T01:39:07.394Z,0.38
2022-11-13T01:41:26.659Z,0.90
2022-11-13T01:43:43.397Z,0.93
2022-11-13T01:46:17.156Z,0.93
2022-11-13T01:48:39.501Z,1.75
2022-11-13T01:50:56.331Z,1.13
2022-11-13T01:53:15.031Z,0.60
2022-11-13T01:55:32.049Z,0.45
2022-11-13T01:57:49.066Z,0.35
2022-11-13T02:00:09.274Z,0.70
2022-11-13T02:02:26.021Z,0.77
2022-11-13T02:04:43.416Z,0.57
2022-11-13T02:07:03.923Z,0.80
2022-11-13T02:09:24.874Z,0.73
2022-11-13T02:11:42.689Z,1.08
2022-11-13T02:14:00.470Z,0.30
2022-11-13T02:16:18.821Z,0.77
2022-11-13T02:18:37.739Z,0.90
2022-11-13T02:21:02.063Z,0.80
2022-11-13T02:23:26.160Z,0.70
2022-11-13T02:25:45.860Z,0.52
2022-11-13T02:28:03.062Z,1.23
2022-11-13T02:30:26.906Z,0.50
2022-11-13T02:32:45.395Z,0.50
2022-11-13T02:35:02.158Z,0.68
2022-11-13T02:37:19.083Z,0.95
2022-11-13T02:39:35.526Z,0.77
2022-11-13T02:41:54.113Z,0.40
2022-11-13T02:44:11.033Z,0.82
2022-11-13T02:46:28.108Z,0.45
2022-11-13T02:48:45.007Z,1.20
2022-11-13T02:51:02.820Z,1.23
2022-11-13T02:53:19.585Z,0.90
2022-11-13T02:55:36.694Z,0.52
2022-11-13T02:57:55.247Z,0.85
2022-11-13T03:00:14.224Z,0.68
2022-11-13T03:02:31.293Z,0.95
2022-11-13T03:05:11.527Z,0.65
2022-11-13T03:07:24.376Z,1.08
2022-11-13T03:09:41.556Z,0.90
2022-11-13T03:11:58.726Z,1.17
2022-11-13T03:14:17.343Z,0.40
2022-11-13T03:16:35.776Z,1.38
2022-11-13T03:18:52.927Z,0.50
2022-11-13T03:21:12.391Z,0.68
2022-11-13T03:23:29.785Z,0.80
2022-11-13T03:25:46.683Z,0.98
2022-11-13T03:28:03.974Z,0.57
2022-11-13T03:30:22.083Z,0.80
2022-11-13T03:32:38.796Z,1.15
2022-11-13T03:34:55.896Z,1.10
2022-11-13T03:37:13.147Z,0.55
2022-11-13T03:39:29.892Z,1.17
2022-11-13T03:41:46.945Z,0.70
2022-11-13T03:44:03.776Z,0.22
2022-11-13T03:46:22.067Z,0.73
2022-11-13T03:48:38.704Z,0.85
2022-11-13T03:50:56.992Z,0.95
2022-11-13T03:53:15.097Z,0.98
2022-11-13T03:55:32.057Z,0.38
2022-11-13T03:57:49.523Z,1.48
2022-11-13T04:00:07.611Z,0.35
2022-11-13T04:02:26.337Z,1.20
2022-11-13T04:04:42.808Z,1.20
2022-11-13T04:06:59.540Z,0.52
2022-11-13T04:09:16.470Z,0.77
2022-11-13T04:11:33.432Z,0.57
2022-11-13T04:13:50.556Z,0.85
2022-11-13T04:16:07.332Z,0.50
2022-11-13T04:18:25.951Z,0.98
2022-11-13T04:20:43.116Z,1.02
2022-11-13T04:23:00.680Z,0.70
2022-11-13T04:25:18.068Z,0.88
2022-11-13T04:27:34.893Z,0.57
2022-11-13T04:29:52.120Z,0.80
2022-11-13T04:32:09.444Z,0.75
2022-11-13T04:34:27.708Z,1.15
2022-11-13T04:36:44.329Z,0.60
2022-11-13T04:39:01.393Z,0.75
2022-11-13T04:41:35.514Z,1.83
2022-11-13T04:43:52.588Z,0.38
2022-11-13T04:46:09.536Z,0.88
2022-11-13T04:48:26.719Z,1.63
2022-11-13T04:50:45.407Z,0.60
2022-11-13T04:53:02.263Z,0.80
2022-11-13T04:55:19.649Z,2.05
2022-11-13T04:57:36.882Z,1.38
2022-11-13T04:59:53.660Z,1.20
2022-11-13T05:02:10.654Z,1.65
2022-11-13T05:04:27.572Z,1.55
2022-11-13T05:06:45.924Z,2.05
2022-11-13T05:09:02.907Z,1.20
2022-11-13T05:11:19.705Z,1.35
2022-11-13T05:13:37.863Z,1.88
2022-11-13T05:16:01.982Z,1.30
2022-11-13T05:18:18.925Z,1.98
2022-11-13T05:20:35.974Z,2.10
2022-11-13T05:22:54.063Z,2.45
2022-11-13T05:25:11.169Z,1.92
2022-11-13T05:27:28.259Z,1.92
2022-11-13T05:29:45.159Z,1.98
2022-11-13T05:32:02.033Z,2.45
2022-11-13T05:34:19.663Z,1.35
2022-11-13T05:36:36.576Z,2.38
2022-11-13T05:38:55.073Z,1.30
2022-11-13T05:41:13.709Z,3.10
2022-11-13T05:43:30.941Z,2.35
2022-11-13T05:45:47.757Z,2.67
2022-11-13T05:48:04.688Z,3.22
2022-11-13T05:50:22.622Z,3.58
2022-11-13T05:52:42.386Z,6.60
2022-11-13T05:55:00.479Z,3.00
2022-11-13T05:57:17.398Z,3.50
2022-11-13T05:59:34.199Z,2.17
2022-11-13T06:01:51.000Z,3.47
2022-11-13T06:04:09.305Z,3.33
2022-11-13T06:06:30.308Z,2.65
2022-11-13T06:08:49.724Z,3.10
2022-11-13T06:11:10.639Z,4.63
2022-11-13T06:13:29.142Z,10.43
2022-11-13T06:15:46.356Z,2.00
2022-11-13T06:18:04.985Z,2.50
2022-11-13T06:20:23.797Z,2.75
2022-11-13T06:22:43.217Z,2.63
2022-11-13T06:24:59.857Z,2.22
2022-11-13T06:27:23.260Z,3.42
2022-11-13T06:29:40.185Z,2.05
2022-11-13T06:31:56.987Z,2.20
2022-11-13T06:34:14.192Z,2.88
2022-11-13T06:36:33.677Z,4.55
2022-11-13T06:38:50.926Z,2.47
2022-11-13T06:41:08.695Z,2.38
2022-11-13T06:43:27.048Z,2.20
2022-11-13T06:48:57.589Z,1.80
2022-11-13T06:51:16.203Z,2.42
2022-11-13T06:53:38.595Z,2.10
2022-11-13T06:56:09.174Z,2.65
2022-11-13T06:58:32.054Z,2.47
2022-11-13T07:01:56.620Z,2.67
2022-11-13T07:04:49.535Z,2.25
2022-11-13T07:07:06.174Z,1.90
2022-11-13T07:09:27.560Z,1.52
2022-11-13T07:11:44.151Z,2.10
2022-11-13T07:14:31.270Z,2.97
2022-11-13T07:17:08.517Z,3.47
2022-11-13T07:19:29.504Z,3.97
2022-11-13T07:21:54.113Z,2.50
2022-11-13T07:24:16.554Z,2.75
2022-11-13T07:26:34.162Z,2.42
2022-11-13T07:28:51.343Z,2.63
2022-11-13T07:31:15.022Z,2.25
2022-11-13T07:33:32.126Z,2.35
2022-11-13T07:38:36.795Z,1.77
2022-11-13T07:40:54.015Z,2.38
2022-11-13T07:43:10.888Z,2.90
2022-11-13T07:45:45.187Z,2.55
2022-11-13T07:48:16.922Z,1.42
2022-11-13T07:50:35.822Z,2.38
2022-11-13T07:52:59.334Z,1.48
2022-11-13T07:55:23.604Z,1.88
2022-11-13T07:57:43.116Z,1.02
2022-11-13T08:00:02.480Z,2.95
2022-11-13T08:02:22.329Z,2.40
2022-11-13T08:04:45.064Z,1.63
2022-11-13T08:07:06.023Z,2.70
2022-11-13T08:09:23.398Z,1.77
2022-11-13T08:11:40.778Z,2.05
2022-11-13T08:14:31.013Z,2.08
2022-11-13T08:16:54.636Z,2.63
2022-11-13T08:19:16.794Z,18.65
2022-11-13T08:22:09.524Z,4.63
2022-11-13T08:25:37.734Z,2.83
2022-11-13T08:27:55.711Z,2.78
2022-11-13T08:30:21.319Z,1.80
2022-11-13T08:33:00.354Z,2.97
2022-11-13T08:35:19.547Z,2.20
2022-11-13T08:37:44.014Z,2.38
2022-11-13T08:40:07.982Z,3.30
2022-11-13T08:42:32.983Z,3.58
2022-11-13T08:44:59.461Z,4.55
2022-11-13T08:47:29.336Z,2.28
2022-11-13T08:49:46.450Z,5.03
2022-11-13T08:52:12.928Z,6.55
2022-11-13T08:54:40.744Z,3.35
2022-11-13T08:57:02.020Z,3.10
2022-11-13T08:59:23.823Z,2.95
2022-11-13T09:01:40.797Z,2.63
2022-11-13T09:03:59.312Z,1.95
2022-11-13T09:06:19.372Z,2.97
2022-11-13T09:08:36.679Z,2.80
2022-11-13T09:10:57.055Z,2.28
2022-11-13T09:13:16.714Z,2.33
2022-11-13T09:15:35.948Z,3.58
2022-11-13T09:17:53.048Z,2.83
2022-11-13T09:20:16.340Z,2.58
2022-11-13T09:22:37.666Z,2.92
2022-11-13T09:24:54.717Z,2.30
2022-11-13T09:27:13.180Z,2.92
2022-11-13T09:29:34.171Z,2.13
2022-11-13T09:31:51.106Z,3.13
2022-11-13T09:34:08.327Z,2.80
2022-11-13T09:36:25.304Z,2.30
2022-11-13T09:38:45.049Z,2.40
2022-11-13T09:41:06.581Z,3.58
2022-11-13T09:43:35.599Z,5.07
2022-11-13T09:46:49.994Z,3.72
2022-11-13T09:49:16.090Z,2.25
2022-11-13T09:52:22.867Z,6.03
2022-11-13T09:54:42.083Z,3.55
2022-11-13T09:57:13.189Z,3.47
2022-11-13T09:59:41.026Z,3.42
2022-11-13T10:02:15.979Z,3.00
2022-11-13T10:04:46.807Z,1.92
2022-11-13T10:07:23.842Z,1.52
2022-11-13T10:09:53.294Z,2.80
2022-11-13T10:12:14.062Z,2.72
2022-11-13T10:14:36.634Z,3.00
2022-11-13T10:16:57.086Z,1.73
2022-11-13T10:19:21.040Z,2.75
2022-11-13T10:21:45.114Z,2.40
2022-11-13T10:24:09.335Z,2.03
2022-11-13T10:26:30.728Z,2.53
2022-11-13T10:28:51.146Z,3.10
2022-11-13T10:31:10.692Z,2.50
2022-11-13T10:33:28.253Z,2.05
2022-11-13T10:35:54.455Z,2.17
2022-11-13T10:38:21.268Z,3.00
2022-11-13T10:41:16.717Z,1.75
2022-11-13T10:43:33.560Z,3.28
2022-11-13T10:45:58.871Z,3.17
2022-11-13T10:48:26.012Z,2.10
2022-11-13T10:50:43.482Z,2.25
2022-11-13T10:53:00.738Z,2.35
2022-11-13T10:55:23.967Z,2.88
2022-11-13T10:57:40.826Z,2.75
2022-11-13T10:59:57.623Z,2.70
2022-11-13T11:02:19.091Z,1.55
2022-11-13T11:04:37.018Z,0.93
2022-11-13T11:07:19.008Z,2.45
2022-11-13T11:09:33.616Z,3.15
2022-11-13T11:12:19.084Z,4.18
2022-11-13T11:14:43.211Z,3.35
2022-11-13T11:17:03.111Z,3.17
2022-11-13T11:19:22.713Z,2.45
2022-11-13T11:21:44.030Z,3.92
2022-11-13T11:24:07.132Z,2.65
2022-11-13T11:26:28.442Z,2.90
2022-11-13T11:29:04.971Z,2.15
2022-11-13T11:31:27.816Z,3.25
2022-11-13T11:33:55.388Z,2.28
2022-11-13T11:36:24.065Z,3.17
2022-11-13T11:38:51.590Z,2.30
2022-11-13T11:41:16.597Z,3.33
2022-11-13T11:43:42.697Z,2.58
2022-11-13T11:45:59.573Z,2.03
2022-11-13T11:48:28.385Z,2.88
2022-11-13T11:50:52.166Z,3.70
2022-11-13T11:53:17.309Z,3.63
2022-11-13T11:55:56.663Z,2.42
2022-11-13T11:58:30.034Z,2.08
2022-11-13T12:00:52.106Z,2.95
2022-11-13T12:03:34.461Z,2.00
2022-11-13T12:05:58.852Z,2.33
2022-11-13T12:08:30.219Z,4.40
2022-11-13T12:10:58.003Z,12.70
2022-11-13T12:13:26.660Z,10.27
2022-11-13T12:15:50.950Z,7.25
2022-11-13T12:18:17.459Z,2.72
2022-11-13T12:20:40.309Z,3.45
2022-11-13T12:23:05.353Z,2.90
2022-11-13T12:25:30.798Z,3.33
2022-11-13T12:28:00.931Z,2.47
2022-11-13T12:30:23.088Z,2.15
2022-11-13T12:33:21.039Z,3.63
2022-11-13T12:35:39.731Z,2.53
2022-11-13T12:38:08.089Z,2.42
2022-11-13T12:40:43.973Z,3.10
2022-11-13T12:43:29.627Z,2.35
2022-11-13T12:50:06.912Z,1.88
2022-11-13T12:52:27.127Z,2.05
2022-11-13T12:55:43.747Z,3.28
2022-11-13T12:58:10.452Z,2.33
2022-11-13T13:00:32.122Z,2.88
2022-11-13T13:03:01.439Z,1.92
2022-11-13T13:05:37.221Z,2.40
2022-11-13T13:10:33.830Z,4.82
2022-11-13T13:12:59.402Z,13.55
2022-11-13T13:15:53.321Z,4.00
2022-11-13T13:18:25.907Z,1.65
2022-11-13T13:23:29.340Z,7.53
2022-11-13T13:25:48.142Z,3.60
2022-11-13T13:28:23.779Z,2.85
2022-11-13T13:30:55.760Z,2.65
2022-11-13T13:33:23.420Z,2.55
2022-11-13T13:35:47.725Z,3.05
2022-11-13T13:38:14.619Z,2.55
2022-11-13T13:40:42.212Z,2.40
2022-11-13T13:43:22.451Z,1.95
2022-11-13T13:45:48.867Z,3.40
2022-11-13T13:48:11.900Z,3.92
2022-11-13T13:50:34.188Z,3.30
2022-11-13T13:52:55.763Z,3.58
2022-11-13T13:55:19.186Z,3.20
2022-11-13T13:57:42.194Z,2.20
2022-11-13T13:59:59.492Z,4.03
2022-11-13T14:02:18.191Z,4.32
2022-11-13T14:04:43.570Z,2.80
2022-11-13T14:07:03.516Z,3.35
2022-11-13T14:09:21.953Z,2.83
2022-11-13T14:11:39.124Z,3.80
2022-11-13T14:14:27.508Z,2.95
2022-11-13T14:16:51.524Z,2.97
2022-11-13T14:19:11.401Z,3.15
2022-11-13T14:21:29.053Z,2.15
2022-11-13T14:23:50.878Z,3.63
2022-11-13T14:26:09.441Z,2.75
2022-11-13T14:28:53.252Z,2.92
2022-11-13T14:31:14.753Z,3.70
2022-11-13T14:34:13.611Z,3.58
2022-11-13T14:36:35.686Z,2.75
2022-11-13T14:39:25.143Z,2.67
2022-11-13T14:41:55.454Z,3.33
2022-11-13T14:44:36.476Z,4.15
2022-11-13T14:47:01.966Z,3.70
2022-11-13T14:49:43.120Z,3.60
2022-11-13T14:52:05.806Z,5.53
2022-11-13T14:55:00.252Z,6.47
2022-11-13T14:57:17.336Z,4.43
2022-11-13T14:59:34.122Z,13.35
2022-11-13T15:01:57.947Z,4.95
2022-11-13T15:04:18.929Z,6.05
2022-11-13T15:06:38.767Z,3.33
2022-11-13T15:09:06.550Z,4.32
2022-11-13T15:11:26.804Z,5.45
2022-11-13T15:13:43.720Z,4.93
2022-11-13T15:16:00.309Z,4.30
2022-11-13T15:18:19.393Z,3.75
2022-11-13T15:20:39.345Z,5.75
2022-11-13T15:22:58.338Z,5.03
2022-11-13T15:25:16.964Z,5.28
2022-11-13T15:27:40.319Z,4.18
2022-11-13T15:29:59.991Z,3.97
2022-11-13T15:32:17.593Z,3.90
2022-11-13T15:34:34.690Z,5.22
2022-11-13T15:36:51.313Z,4.88
2022-11-13T15:39:15.637Z,4.13
2022-11-13T15:41:38.103Z,3.78
2022-11-13T15:44:00.427Z,4.45
2022-11-13T15:46:22.157Z,5.82
2022-11-13T15:48:39.573Z,3.83
2022-11-13T15:50:56.393Z,5.70
2022-11-13T15:53:13.482Z,7.93
2022-11-13T15:55:33.991Z,4.30
2022-11-13T15:57:51.101Z,5.25
2022-11-13T16:00:15.311Z,5.07
2022-11-13T16:02:32.273Z,5.13
2022-11-13T16:04:56.700Z,6.40
2022-11-13T16:07:17.231Z,7.88
2022-11-13T16:09:34.370Z,5.57
2022-11-13T16:11:51.435Z,5.93
2022-11-13T16:14:08.998Z,5.25
2022-11-13T16:16:40.285Z,6.68
2022-11-13T16:19:00.358Z,7.05
2022-11-13T16:21:18.590Z,5.45
2022-11-13T16:23:35.899Z,7.30
2022-11-13T16:25:55.622Z,7.22
2022-11-13T16:28:16.902Z,7.70
2022-11-13T16:30:33.767Z,6.60
2022-11-13T16:32:52.867Z,5.72
2022-11-13T16:35:14.472Z,6.63
2022-11-13T16:37:31.263Z,7.68
2022-11-13T16:39:48.214Z,7.18
2022-11-13T16:42:07.292Z,6.38
2022-11-13T16:44:24.367Z,6.22
2022-11-13T16:46:49.617Z,7.70
2022-11-13T16:51:25.021Z,6.80
2022-11-13T16:53:42.033Z,8.38
2022-11-13T16:55:59.059Z,9.68
2022-11-13T16:58:16.192Z,9.32
2022-11-13T17:00:33.178Z,9.60
2022-11-13T17:02:52.641Z,9.98
2022-11-13T17:05:14.370Z,18.88
2022-11-13T17:07:31.289Z,8.27
2022-11-13T17:10:10.127Z,6.72
2022-11-13T17:12:27.533Z,9.35
2022-11-13T17:14:44.695Z,7.18
2022-11-13T17:17:01.572Z,9.77
2022-11-13T17:19:21.033Z,9.40
2022-11-13T17:21:43.988Z,10.77
2022-11-13T17:24:04.841Z,10.20
2022-11-13T17:26:24.738Z,10.35
2022-11-13T17:28:44.019Z,9.18
2022-11-13T17:31:04.813Z,12.05
2022-11-13T17:33:21.674Z,9.55
2022-11-13T17:35:38.731Z,11.55
2022-11-13T17:37:57.216Z,13.48
2022-11-13T17:40:14.329Z,10.75
2022-11-13T17:42:31.498Z,11.13
2022-11-13T17:44:48.415Z,8.65
2022-11-13T17:47:05.091Z,10.05
2022-11-13T17:49:22.254Z,9.18
2022-11-13T17:51:39.580Z,11.35
2022-11-13T17:53:59.606Z,11.73
2022-11-13T17:56:16.539Z,10.30
2022-11-13T17:58:39.848Z,9.20
2022-11-13T18:01:04.683Z,10.98
2022-11-13T18:03:21.638Z,11.55
2022-11-13T18:05:40.789Z,15.23
2022-11-13T18:07:58.848Z,20.90
2022-11-13T18:10:18.218Z,18.33
2022-11-13T18:12:35.279Z,39.05
2022-11-13T18:14:53.494Z,17.10
2022-11-13T18:17:13.824Z,14.90
2022-11-13T18:19:30.792Z,13.63
2022-11-13T18:21:47.824Z,17.58
2022-11-13T18:24:07.210Z,16.10
2022-11-13T18:26:30.679Z,12.75
2022-11-13T18:28:47.478Z,12.23
2022-11-13T18:31:08.339Z,14.55
2022-11-13T18:33:25.600Z,11.82
2022-11-13T18:35:43.865Z,11.55
2022-11-13T18:38:00.516Z,13.38
2022-11-13T18:40:17.901Z,14.57
2022-11-13T18:42:36.125Z,10.57
2022-11-13T18:44:52.789Z,15.15
2022-11-13T18:47:09.831Z,11.55
2022-11-13T18:49:26.645Z,13.05
2022-11-13T18:51:44.637Z,11.55
2022-11-13T18:54:04.342Z,13.18
2022-11-13T18:56:28.159Z,12.77
2022-11-13T18:58:49.858Z,13.70
2022-11-13T19:01:10.057Z,13.30
2022-11-13T19:03:27.422Z,14.13
2022-11-13T19:05:45.948Z,12.00
2022-11-13T19:08:02.784Z,13.80
2022-11-13T19:10:19.557Z,14.43
2022-11-13T19:12:40.894Z,12.38
2022-11-13T19:15:02.459Z,12.10
2022-11-13T19:17:19.373Z,13.45
2022-11-13T19:19:36.671Z,10.50
2022-11-13T19:21:53.628Z,14.23
2022-11-13T19:24:11.972Z,15.88
2022-11-13T19:26:31.378Z,14.02
2022-11-13T19:28:48.999Z,13.18
2022-11-13T19:31:10.041Z,11.57
2022-11-13T19:33:28.484Z,14.40
2022-11-13T19:35:46.859Z,13.32
2022-11-13T19:38:04.113Z,11.48
2022-11-13T19:40:21.043Z,17.35
2022-11-13T19:42:40.899Z,11.90
2022-11-13T19:44:59.007Z,12.13
2022-11-13T19:47:17.546Z,13.35
2022-11-13T19:49:35.389Z,10.27
2022-11-13T19:51:52.306Z,15.13
2022-11-13T19:54:09.693Z,12.77
2022-11-13T19:56:28.285Z,13.70
2022-11-13T19:58:46.973Z,14.80
2022-11-13T20:01:09.675Z,13.32
2022-11-13T20:03:28.108Z,16.70
2022-11-13T20:05:45.453Z,16.73
2022-11-13T20:08:02.343Z,14.27
2022-11-13T20:10:19.875Z,13.68
2022-11-13T20:12:36.666Z,16.42
2022-11-13T20:14:53.562Z,14.90
2022-11-13T20:17:10.894Z,19.00
2022-11-13T20:19:30.343Z,17.23
2022-11-13T20:21:50.411Z,15.48
2022-11-13T20:24:08.086Z,15.52
2022-11-13T20:26:25.330Z,13.68
2022-11-13T20:28:42.175Z,13.95
2022-11-13T20:31:06.903Z,13.02
2022-11-13T20:33:23.729Z,15.75
2022-11-13T20:35:42.360Z,14.13
2022-11-13T20:37:59.476Z,27.38
2022-11-13T20:40:19.716Z,31.30
2022-11-13T20:42:37.861Z,25.45
2022-11-13T20:44:59.884Z,24.08
2022-11-13T20:47:18.165Z,19.70
2022-11-13T20:49:35.041Z,13.93
2022-11-13T20:51:57.198Z,14.80
2022-11-13T20:54:14.394Z,18.25
2022-11-13T20:56:31.487Z,17.50
2022-11-13T20:58:48.497Z,13.13
2022-11-13T21:01:06.821Z,31.45
2022-11-13T21:03:23.585Z,46.70
2022-11-13T21:05:40.528Z,19.92
2022-11-13T21:07:59.259Z,19.95
2022-11-13T21:10:16.016Z,17.60
2022-11-13T21:12:32.934Z,14.50
2022-11-13T21:14:51.417Z,19.90
2022-11-13T21:17:08.744Z,14.27
2022-11-13T21:19:26.006Z,12.25
2022-11-13T21:21:43.203Z,10.98
2022-11-13T21:24:01.459Z,10.60
2022-11-13T21:26:18.644Z,13.15
2022-11-13T21:28:36.661Z,8.98
2022-11-13T21:30:54.009Z,12.18
2022-11-13T21:33:11.070Z,10.48
2022-11-13T21:35:30.169Z,13.13
2022-11-13T21:37:47.229Z,11.55
2022-11-13T21:40:07.620Z,12.15
2022-11-13T21:42:24.414Z,12.57
2022-11-13T21:44:41.096Z,12.38
2022-11-13T21:46:58.200Z,10.65
2022-11-13T21:49:15.590Z,11.13
2022-11-13T21:51:34.329Z,12.85
2022-11-13T21:53:57.629Z,9.57
2022-11-13T21:56:17.308Z,11.57
2022-11-13T21:58:36.760Z,8.82
2022-11-13T22:00:53.889Z,9.48
2022-11-13T22:03:11.424Z,8.15
2022-11-13T22:05:28.842Z,10.35
2022-11-13T22:07:45.699Z,8.95
2022-11-13T22:10:07.998Z,10.48
2022-11-13T22:12:26.424Z,12.45
2022-11-13T22:14:43.347Z,12.82
2022-11-13T22:17:00.662Z,10.30
2022-11-13T22:19:22.621Z,10.25
2022-11-13T22:21:44.079Z,12.65
2022-11-13T22:24:01.757Z,10.45
2022-11-13T22:26:20.032Z,9.32
2022-11-13T22:28:40.856Z,7.22
2022-11-13T22:30:57.725Z,10.55
2022-11-13T22:33:14.461Z,9.20
2022-11-13T22:35:31.468Z,10.82
2022-11-13T22:37:48.866Z,8.48
2022-11-13T22:40:07.385Z,10.23
2022-11-13T22:42:25.414Z,8.38
2022-11-13T22:44:55.415Z,10.55
2022-11-13T22:47:13.569Z,11.98
2022-11-13T22:49:30.379Z,13.90
2022-11-13T22:51:47.514Z,13.05
2022-11-13T22:54:06.706Z,11.82
2022-11-13T22:56:25.461Z,12.70
2022-11-13T22:58:42.100Z,11.35
2022-11-13T23:01:07.006Z,12.88
2022-11-13T23:03:24.179Z,20.38
2022-11-13T23:05:41.328Z,17.08
2022-11-13T23:07:58.369Z,13.88
2022-11-13T23:10:15.268Z,16.10
2022-11-13T23:12:45.652Z,10.70
2022-11-13T23:15:02.482Z,11.85
2022-11-13T23:17:20.883Z,12.50
2022-11-13T23:19:37.962Z,11.30
2022-11-13T23:21:57.942Z,10.32
2022-11-13T23:24:14.745Z,12.40
2022-11-13T23:26:32.101Z,11.75
2022-11-13T23:28:48.576Z,12.02
2022-11-13T23:31:06.104Z,13.52
2022-11-13T23:33:24.738Z,11.93
2022-11-13T23:35:41.652Z,12.18
2022-11-13T23:37:59.510Z,13.60
2022-11-13T23:40:16.309Z,11.57
2022-11-13T23:42:54.385Z,12.73
2022-11-13T23:45:09.907Z,13.32
2022-11-13T23:47:26.795Z,12.55
2022-11-13T23:49:44.998Z,11.50
2022-11-13T23:52:01.876Z,12.65
2022-11-13T23:54:18.904Z,10.73
2022-11-13T23:56:35.899Z,11.50
2022-11-13T23:58:53.781Z,11.43
